sensor_id;sensor_type;location;lat;lon;timestamp;noise_LAeq;noise_LA_min;noise_LA_max;noise_LA01;noise_LA95
66399;Laerm;54877;51.504;3.894;2023-05-07T00:00:37;37.55;34.81;41.64;;
66399;Laerm;54877;51.504;3.894;2023-05-07T00:03:03;39.59;35.23;45.32;;
66399;Laerm;54877;51.504;3.894;2023-05-07T00:05:28;39.12;35.77;44.59;;
66399;Laerm;54877;51.504;3.894;2023-05-07T00:07:53;39.63;35.24;47.10;;
66399;Laerm;54877;51.504;3.894;2023-05-07T00:10:19;39.37;35.58;46.28;;
66399;Laerm;54877;51.504;3.894;2023-05-07T00:12:44;38.29;34.78;44.32;;
66399;Laerm;54877;51.504;3.894;2023-05-07T00:15:10;36.83;35.01;42.57;;
66399;Laerm;54877;51.504;3.894;2023-05-07T00:17:36;37.58;34.29;43.93;;
66399;Laerm;54877;51.504;3.894;2023-05-07T00:20:02;38.45;34.87;43.99;;
66399;Laerm;54877;51.504;3.894;2023-05-07T00:22:28;36.87;34.74;44.42;;
66399;Laerm;54877;51.504;3.894;2023-05-07T00:24:55;37.16;34.58;48.41;;
66399;Laerm;54877;51.504;3.894;2023-05-07T00:27:20;36.30;34.67;39.82;;
66399;Laerm;54877;51.504;3.894;2023-05-07T00:29:46;36.31;34.54;39.14;;
66399;Laerm;54877;51.504;3.894;2023-05-07T00:32:11;37.02;34.55;41.47;;
66399;Laerm;54877;51.504;3.894;2023-05-07T00:34:36;37.82;34.61;42.24;;
66399;Laerm;54877;51.504;3.894;2023-05-07T00:37:02;35.92;34.52;38.24;;
66399;Laerm;54877;51.504;3.894;2023-05-07T00:39:27;37.78;34.63;62.57;;
66399;Laerm;54877;51.504;3.894;2023-05-07T00:41:52;36.03;34.44;46.00;;
66399;Laerm;54877;51.504;3.894;2023-05-07T00:44:18;35.91;34.52;37.45;;
66399;Laerm;54877;51.504;3.894;2023-05-07T00:46:43;39.59;34.45;60.89;;
66399;Laerm;54877;51.504;3.894;2023-05-07T00:49:09;37.44;34.62;46.63;;
66399;Laerm;54877;51.504;3.894;2023-05-07T00:51:36;35.93;34.39;38.97;;
66399;Laerm;54877;51.504;3.894;2023-05-07T00:54:02;36.66;34.58;47.06;;
66399;Laerm;54877;51.504;3.894;2023-05-07T00:56:28;35.97;34.54;38.44;;
66399;Laerm;54877;51.504;3.894;2023-05-07T00:58:53;38.34;34.44;62.75;;
66399;Laerm;54877;51.504;3.894;2023-05-07T01:01:19;39.65;34.45;71.62;;
66399;Laerm;54877;51.504;3.894;2023-05-07T01:03:45;38.71;34.44;53.94;;
66399;Laerm;54877;51.504;3.894;2023-05-07T01:06:11;36.01;34.53;38.01;;
66399;Laerm;54877;51.504;3.894;2023-05-07T01:08:39;35.93;34.50;37.10;;
66399;Laerm;54877;51.504;3.894;2023-05-07T01:11:06;35.92;34.58;37.13;;
66399;Laerm;54877;51.504;3.894;2023-05-07T01:13:33;36.44;34.64;51.51;;
66399;Laerm;54877;51.504;3.894;2023-05-07T01:15:58;35.93;34.72;37.20;;
66399;Laerm;54877;51.504;3.894;2023-05-07T01:18:24;35.94;34.52;37.29;;
66399;Laerm;54877;51.504;3.894;2023-05-07T01:20:51;35.92;34.65;37.27;;
66399;Laerm;54877;51.504;3.894;2023-05-07T01:23:17;42.18;34.59;61.16;;
66399;Laerm;54877;51.504;3.894;2023-05-07T01:25:43;39.06;34.61;54.63;;
66399;Laerm;54877;51.504;3.894;2023-05-07T01:28:08;35.96;34.58;41.47;;
66399;Laerm;54877;51.504;3.894;2023-05-07T01:30:34;36.04;34.46;45.45;;
66399;Laerm;54877;51.504;3.894;2023-05-07T01:33:08;36.18;34.53;49.81;;
66399;Laerm;54877;51.504;3.894;2023-05-07T01:35:38;41.30;34.64;59.89;;
66399;Laerm;54877;51.504;3.894;2023-05-07T01:38:05;40.77;34.85;48.16;;
66399;Laerm;54877;51.504;3.894;2023-05-07T01:40:32;41.31;34.90;52.75;;
66399;Laerm;54877;51.504;3.894;2023-05-07T01:42:59;41.27;35.35;54.72;;
66399;Laerm;54877;51.504;3.894;2023-05-07T01:45:25;38.71;34.89;52.87;;
66399;Laerm;54877;51.504;3.894;2023-05-07T01:47:51;39.54;34.81;54.23;;
66399;Laerm;54877;51.504;3.894;2023-05-07T01:50:19;41.78;34.74;64.41;;
66399;Laerm;54877;51.504;3.894;2023-05-07T01:52:44;41.06;35.52;47.86;;
66399;Laerm;54877;51.504;3.894;2023-05-07T01:55:10;41.63;34.70;51.53;;
66399;Laerm;54877;51.504;3.894;2023-05-07T01:57:36;35.90;34.57;37.26;;
66399;Laerm;54877;51.504;3.894;2023-05-07T02:00:01;36.01;34.52;38.53;;
66399;Laerm;54877;51.504;3.894;2023-05-07T02:02:27;36.62;34.69;45.35;;
66399;Laerm;54877;51.504;3.894;2023-05-07T02:04:53;36.84;35.09;41.14;;
66399;Laerm;54877;51.504;3.894;2023-05-07T02:07:18;36.42;34.76;57.79;;
66399;Laerm;54877;51.504;3.894;2023-05-07T02:09:43;36.21;34.63;42.03;;
66399;Laerm;54877;51.504;3.894;2023-05-07T02:12:09;36.25;34.76;39.56;;
66399;Laerm;54877;51.504;3.894;2023-05-07T02:14:34;36.28;34.88;43.39;;
66399;Laerm;54877;51.504;3.894;2023-05-07T02:16:59;36.17;34.70;41.12;;
66399;Laerm;54877;51.504;3.894;2023-05-07T02:19:25;37.98;35.10;49.05;;
66399;Laerm;54877;51.504;3.894;2023-05-07T02:21:51;39.85;35.23;55.02;;
66399;Laerm;54877;51.504;3.894;2023-05-07T02:24:16;38.15;35.96;42.07;;
66399;Laerm;54877;51.504;3.894;2023-05-07T02:26:41;38.33;36.06;43.28;;
66399;Laerm;54877;51.504;3.894;2023-05-07T02:29:07;38.12;35.68;42.46;;
66399;Laerm;54877;51.504;3.894;2023-05-07T02:31:32;38.11;35.94;43.67;;
66399;Laerm;54877;51.504;3.894;2023-05-07T02:33:59;38.10;35.96;41.11;;
66399;Laerm;54877;51.504;3.894;2023-05-07T02:36:24;38.04;35.40;44.90;;
66399;Laerm;54877;51.504;3.894;2023-05-07T02:38:50;38.07;35.27;44.94;;
66399;Laerm;54877;51.504;3.894;2023-05-07T02:41:15;36.98;34.94;44.05;;
66399;Laerm;54877;51.504;3.894;2023-05-07T02:43:41;37.23;35.16;40.80;;
66399;Laerm;54877;51.504;3.894;2023-05-07T02:46:08;37.99;35.73;50.74;;
66399;Laerm;54877;51.504;3.894;2023-05-07T02:48:33;38.63;35.60;50.69;;
66399;Laerm;54877;51.504;3.894;2023-05-07T02:50:59;39.13;35.35;50.34;;
66399;Laerm;54877;51.504;3.894;2023-05-07T02:53:25;38.85;35.77;50.87;;
66399;Laerm;54877;51.504;3.894;2023-05-07T02:55:55;39.46;35.62;51.64;;
66399;Laerm;54877;51.504;3.894;2023-05-07T02:58:21;39.98;35.50;51.96;;
66399;Laerm;54877;51.504;3.894;2023-05-07T03:00:46;39.44;35.60;51.71;;
66399;Laerm;54877;51.504;3.894;2023-05-07T03:03:11;40.03;35.09;53.14;;
66399;Laerm;54877;51.504;3.894;2023-05-07T03:05:37;40.78;34.78;52.79;;
66399;Laerm;54877;51.504;3.894;2023-05-07T03:08:03;42.65;35.25;52.95;;
66399;Laerm;54877;51.504;3.894;2023-05-07T03:10:29;41.14;35.32;52.26;;
66399;Laerm;54877;51.504;3.894;2023-05-07T03:12:54;40.94;35.61;52.68;;
66399;Laerm;54877;51.504;3.894;2023-05-07T03:15:20;40.61;35.58;52.50;;
66399;Laerm;54877;51.504;3.894;2023-05-07T03:17:47;40.89;35.63;51.78;;
66399;Laerm;54877;51.504;3.894;2023-05-07T03:20:12;41.64;35.50;51.30;;
66399;Laerm;54877;51.504;3.894;2023-05-07T03:22:38;41.39;35.54;53.00;;
66399;Laerm;54877;51.504;3.894;2023-05-07T03:25:03;46.68;35.30;54.91;;
66399;Laerm;54877;51.504;3.894;2023-05-07T03:27:29;44.34;35.39;52.64;;
66399;Laerm;54877;51.504;3.894;2023-05-07T03:29:55;41.81;35.46;52.13;;
66399;Laerm;54877;51.504;3.894;2023-05-07T03:32:20;40.09;35.44;49.16;;
66399;Laerm;54877;51.504;3.894;2023-05-07T03:34:46;41.00;35.14;50.98;;
66399;Laerm;54877;51.504;3.894;2023-05-07T03:37:11;43.17;35.39;52.61;;
66399;Laerm;54877;51.504;3.894;2023-05-07T03:39:36;40.19;34.90;50.23;;
66399;Laerm;54877;51.504;3.894;2023-05-07T03:42:02;40.27;35.12;51.89;;
66399;Laerm;54877;51.504;3.894;2023-05-07T03:44:28;39.02;35.10;50.74;;
66399;Laerm;54877;51.504;3.894;2023-05-07T03:46:53;38.15;35.35;50.91;;
66399;Laerm;54877;51.504;3.894;2023-05-07T03:49:18;38.72;34.89;48.07;;
66399;Laerm;54877;51.504;3.894;2023-05-07T03:51:44;40.14;35.36;50.09;;
66399;Laerm;54877;51.504;3.894;2023-05-07T03:54:09;39.76;35.34;50.35;;
66399;Laerm;54877;51.504;3.894;2023-05-07T03:56:34;39.13;35.69;48.71;;
66399;Laerm;54877;51.504;3.894;2023-05-07T03:59:00;39.80;35.61;50.67;;
66399;Laerm;54877;51.504;3.894;2023-05-07T04:01:26;39.16;35.34;52.12;;
66399;Laerm;54877;51.504;3.894;2023-05-07T04:03:51;39.16;34.89;49.97;;
66399;Laerm;54877;51.504;3.894;2023-05-07T04:06:17;41.02;34.82;50.26;;
66399;Laerm;54877;51.504;3.894;2023-05-07T04:08:45;39.29;35.25;45.31;;
66399;Laerm;54877;51.504;3.894;2023-05-07T04:11:11;38.63;35.21;45.86;;
66399;Laerm;54877;51.504;3.894;2023-05-07T04:13:36;38.57;35.26;45.14;;
66399;Laerm;54877;51.504;3.894;2023-05-07T04:16:03;41.13;34.85;47.76;;
66399;Laerm;54877;51.504;3.894;2023-05-07T04:18:29;40.65;35.40;47.49;;
66399;Laerm;54877;51.504;3.894;2023-05-07T04:20:54;40.86;35.38;49.48;;
66399;Laerm;54877;51.504;3.894;2023-05-07T04:23:20;40.20;34.98;48.81;;
66399;Laerm;54877;51.504;3.894;2023-05-07T04:25:46;40.22;34.80;49.88;;
66399;Laerm;54877;51.504;3.894;2023-05-07T04:28:11;39.35;35.15;46.43;;
66399;Laerm;54877;51.504;3.894;2023-05-07T04:30:37;40.84;35.39;48.16;;
66399;Laerm;54877;51.504;3.894;2023-05-07T04:33:03;39.47;34.94;52.38;;
66399;Laerm;54877;51.504;3.894;2023-05-07T04:35:28;36.93;34.71;51.34;;
66399;Laerm;54877;51.504;3.894;2023-05-07T04:37:53;36.92;34.67;44.53;;
66399;Laerm;54877;51.504;3.894;2023-05-07T04:40:18;36.91;34.58;43.66;;
66399;Laerm;54877;51.504;3.894;2023-05-07T04:42:44;36.94;34.56;44.95;;
66399;Laerm;54877;51.504;3.894;2023-05-07T04:45:09;38.79;34.70;53.78;;
66399;Laerm;54877;51.504;3.894;2023-05-07T04:47:35;36.35;34.80;42.11;;
66399;Laerm;54877;51.504;3.894;2023-05-07T04:50:00;36.54;34.82;42.87;;
66399;Laerm;54877;51.504;3.894;2023-05-07T04:52:26;37.43;34.96;45.69;;
66399;Laerm;54877;51.504;3.894;2023-05-07T04:54:51;37.01;34.85;43.80;;
66399;Laerm;54877;51.504;3.894;2023-05-07T04:57:17;37.80;35.02;44.69;;
66399;Laerm;54877;51.504;3.894;2023-05-07T04:59:43;39.06;34.87;46.98;;
66399;Laerm;54877;51.504;3.894;2023-05-07T05:02:10;39.54;34.81;63.09;;
66399;Laerm;54877;51.504;3.894;2023-05-07T05:04:36;36.41;34.42;45.32;;
66399;Laerm;54877;51.504;3.894;2023-05-07T05:07:02;38.07;34.63;61.87;;
66399;Laerm;54877;51.504;3.894;2023-05-07T05:09:29;36.66;34.51;47.97;;
66399;Laerm;54877;51.504;3.894;2023-05-07T05:11:54;36.79;34.64;45.66;;
66399;Laerm;54877;51.504;3.894;2023-05-07T05:14:20;39.99;35.08;46.87;;
66399;Laerm;54877;51.504;3.894;2023-05-07T05:16:45;39.99;34.82;50.55;;
66399;Laerm;54877;51.504;3.894;2023-05-07T05:19:10;39.74;34.51;62.21;;
66399;Laerm;54877;51.504;3.894;2023-05-07T05:21:35;39.16;34.57;65.50;;
66399;Laerm;54877;51.504;3.894;2023-05-07T05:24:01;37.52;34.05;63.59;;
66399;Laerm;54877;51.504;3.894;2023-05-07T05:26:26;36.11;34.37;40.80;;
66399;Laerm;54877;51.504;3.894;2023-05-07T05:28:51;36.35;34.46;57.15;;
66399;Laerm;54877;51.504;3.894;2023-05-07T05:31:17;36.41;34.42;43.24;;
66399;Laerm;54877;51.504;3.894;2023-05-07T05:33:42;35.99;34.66;41.64;;
66399;Laerm;54877;51.504;3.894;2023-05-07T05:36:10;42.47;34.18;65.81;;
66399;Laerm;54877;51.504;3.894;2023-05-07T05:38:37;35.89;34.52;42.16;;
66399;Laerm;54877;51.504;3.894;2023-05-07T05:41:02;35.90;34.42;39.94;;
66399;Laerm;54877;51.504;3.894;2023-05-07T05:43:28;36.40;34.72;42.19;;
66399;Laerm;54877;51.504;3.894;2023-05-07T05:45:53;36.19;34.37;44.79;;
66399;Laerm;54877;51.504;3.894;2023-05-07T05:48:20;35.97;34.40;38.91;;
66399;Laerm;54877;51.504;3.894;2023-05-07T05:50:45;39.20;34.40;59.44;;
66399;Laerm;54877;51.504;3.894;2023-05-07T05:53:10;36.10;34.53;50.89;;
66399;Laerm;54877;51.504;3.894;2023-05-07T05:55:36;35.78;34.47;37.65;;
66399;Laerm;54877;51.504;3.894;2023-05-07T05:58:01;36.13;34.21;49.16;;
66399;Laerm;54877;51.504;3.894;2023-05-07T06:00:27;35.92;34.58;41.93;;
66399;Laerm;54877;51.504;3.894;2023-05-07T06:02:52;36.54;34.03;47.07;;
66399;Laerm;54877;51.504;3.894;2023-05-07T06:05:18;38.48;34.45;53.55;;
66399;Laerm;54877;51.504;3.894;2023-05-07T06:07:43;40.87;34.51;50.80;;
66399;Laerm;54877;51.504;3.894;2023-05-07T06:10:08;35.98;34.43;42.67;;
66399;Laerm;54877;51.504;3.894;2023-05-07T06:12:34;36.00;34.26;39.97;;
66399;Laerm;54877;51.504;3.894;2023-05-07T06:14:59;36.50;34.26;49.53;;
66399;Laerm;54877;51.504;3.894;2023-05-07T06:17:25;36.63;34.03;45.43;;
66399;Laerm;54877;51.504;3.894;2023-05-07T06:19:50;35.79;34.26;44.21;;
66399;Laerm;54877;51.504;3.894;2023-05-07T06:22:16;35.97;34.49;43.19;;
66399;Laerm;54877;51.504;3.894;2023-05-07T06:24:41;38.25;34.42;55.00;;
66399;Laerm;54877;51.504;3.894;2023-05-07T06:27:06;36.11;34.34;48.84;;
66399;Laerm;54877;51.504;3.894;2023-05-07T06:29:32;35.63;34.16;37.52;;
66399;Laerm;54877;51.504;3.894;2023-05-07T06:32:18;35.86;33.89;44.65;;
66399;Laerm;54877;51.504;3.894;2023-05-07T06:34:44;35.71;34.19;41.38;;
66399;Laerm;54877;51.504;3.894;2023-05-07T06:37:09;35.63;34.21;45.56;;
66399;Laerm;54877;51.504;3.894;2023-05-07T06:39:34;35.59;33.99;37.75;;
66399;Laerm;54877;51.504;3.894;2023-05-07T06:42:01;35.62;34.38;45.57;;
66399;Laerm;54877;51.504;3.894;2023-05-07T06:44:27;35.63;34.13;42.30;;
66399;Laerm;54877;51.504;3.894;2023-05-07T06:46:52;35.82;34.14;40.26;;
66399;Laerm;54877;51.504;3.894;2023-05-07T06:49:18;35.52;34.14;37.17;;
66399;Laerm;54877;51.504;3.894;2023-05-07T06:51:43;35.53;34.03;39.68;;
66399;Laerm;54877;51.504;3.894;2023-05-07T06:54:08;39.11;34.24;55.61;;
66399;Laerm;54877;51.504;3.894;2023-05-07T06:56:34;36.45;34.04;50.41;;
66399;Laerm;54877;51.504;3.894;2023-05-07T06:59:00;35.71;34.17;42.42;;
66399;Laerm;54877;51.504;3.894;2023-05-07T07:01:25;36.75;34.03;48.29;;
66399;Laerm;54877;51.504;3.894;2023-05-07T07:03:51;36.48;33.93;45.43;;
66399;Laerm;54877;51.504;3.894;2023-05-07T07:06:17;35.82;34.05;43.98;;
66399;Laerm;54877;51.504;3.894;2023-05-07T07:08:42;35.69;33.62;44.82;;
66399;Laerm;54877;51.504;3.894;2023-05-07T07:11:08;39.86;33.90;55.50;;
66399;Laerm;54877;51.504;3.894;2023-05-07T07:13:34;35.87;34.04;43.68;;
66399;Laerm;54877;51.504;3.894;2023-05-07T07:16:00;36.06;33.92;47.37;;
66399;Laerm;54877;51.504;3.894;2023-05-07T07:18:25;35.25;33.59;40.69;;
66399;Laerm;54877;51.504;3.894;2023-05-07T07:20:50;37.97;33.99;49.54;;
66399;Laerm;54877;51.504;3.894;2023-05-07T07:23:16;38.02;33.84;53.65;;
66399;Laerm;54877;51.504;3.894;2023-05-07T07:25:41;40.68;33.79;65.87;;
66399;Laerm;54877;51.504;3.894;2023-05-07T07:28:06;43.14;33.64;67.57;;
66399;Laerm;54877;51.504;3.894;2023-05-07T07:30:32;47.24;34.08;70.00;;
66399;Laerm;54877;51.504;3.894;2023-05-07T07:32:57;49.87;33.47;74.18;;
66399;Laerm;54877;51.504;3.894;2023-05-07T07:35:28;48.16;33.77;70.80;;
66399;Laerm;54877;51.504;3.894;2023-05-07T07:37:53;36.49;33.77;49.00;;
66399;Laerm;54877;51.504;3.894;2023-05-07T07:40:19;37.16;33.87;49.76;;
66399;Laerm;54877;51.504;3.894;2023-05-07T07:42:44;44.93;33.93;57.25;;
66399;Laerm;54877;51.504;3.894;2023-05-07T07:45:10;49.89;36.83;69.12;;
66399;Laerm;54877;51.504;3.894;2023-05-07T07:47:35;48.38;36.93;63.37;;
66399;Laerm;54877;51.504;3.894;2023-05-07T07:50:00;41.35;33.81;53.24;;
66399;Laerm;54877;51.504;3.894;2023-05-07T07:52:26;42.84;33.66;61.59;;
66399;Laerm;54877;51.504;3.894;2023-05-07T07:54:51;38.75;33.83;59.55;;
66399;Laerm;54877;51.504;3.894;2023-05-07T07:57:16;35.33;33.13;44.93;;
66399;Laerm;54877;51.504;3.894;2023-05-07T07:59:41;41.34;33.70;69.64;;
66399;Laerm;54877;51.504;3.894;2023-05-07T08:02:08;39.49;33.73;55.66;;
66399;Laerm;54877;51.504;3.894;2023-05-07T08:04:33;46.50;33.59;66.50;;
66399;Laerm;54877;51.504;3.894;2023-05-07T08:06:59;44.52;33.83;66.16;;
66399;Laerm;54877;51.504;3.894;2023-05-07T08:09:24;43.00;33.69;70.85;;
66399;Laerm;54877;51.504;3.894;2023-05-07T08:11:50;46.40;33.59;68.65;;
66399;Laerm;54877;51.504;3.894;2023-05-07T08:14:15;46.48;34.03;70.20;;
66399;Laerm;54877;51.504;3.894;2023-05-07T08:16:41;45.79;33.60;70.96;;
66399;Laerm;54877;51.504;3.894;2023-05-07T08:19:06;35.44;33.52;46.45;;
66399;Laerm;54877;51.504;3.894;2023-05-07T08:21:31;40.92;33.41;63.65;;
66399;Laerm;54877;51.504;3.894;2023-05-07T08:23:57;49.96;33.60;72.83;;
66399;Laerm;54877;51.504;3.894;2023-05-07T08:26:22;50.22;33.52;76.80;;
66399;Laerm;54877;51.504;3.894;2023-05-07T08:28:48;48.64;33.56;69.14;;
66399;Laerm;54877;51.504;3.894;2023-05-07T08:31:13;41.97;33.69;61.54;;
66399;Laerm;54877;51.504;3.894;2023-05-07T08:33:38;51.50;33.47;74.82;;
66399;Laerm;54877;51.504;3.894;2023-05-07T08:36:04;47.16;33.89;70.52;;
66399;Laerm;54877;51.504;3.894;2023-05-07T08:38:31;36.56;33.46;52.64;;
66399;Laerm;54877;51.504;3.894;2023-05-07T08:40:56;37.41;33.21;53.87;;
66399;Laerm;54877;51.504;3.894;2023-05-07T08:43:23;52.49;33.71;77.50;;
66399;Laerm;54877;51.504;3.894;2023-05-07T08:45:53;50.07;33.31;77.48;;
66399;Laerm;54877;51.504;3.894;2023-05-07T08:48:22;36.00;33.53;45.12;;
66399;Laerm;54877;51.504;3.894;2023-05-07T08:50:50;47.33;33.90;66.58;;
66399;Laerm;54877;51.504;3.894;2023-05-07T08:53:16;46.48;33.58;73.48;;
66399;Laerm;54877;51.504;3.894;2023-05-07T08:55:42;42.60;33.63;68.01;;
66399;Laerm;54877;51.504;3.894;2023-05-07T08:58:08;39.63;33.54;62.73;;
66399;Laerm;54877;51.504;3.894;2023-05-07T09:00:35;49.16;33.81;72.74;;
66399;Laerm;54877;51.504;3.894;2023-05-07T09:03:01;49.07;33.46;74.76;;
66399;Laerm;54877;51.504;3.894;2023-05-07T09:05:26;37.99;33.86;54.09;;
66399;Laerm;54877;51.504;3.894;2023-05-07T09:07:52;44.91;33.52;64.83;;
66399;Laerm;54877;51.504;3.894;2023-05-07T09:10:17;41.95;33.48;69.38;;
66399;Laerm;54877;51.504;3.894;2023-05-07T09:12:42;48.45;33.52;79.11;;
66399;Laerm;54877;51.504;3.894;2023-05-07T09:15:08;44.91;33.51;63.15;;
66399;Laerm;54877;51.504;3.894;2023-05-07T09:17:33;37.17;33.40;52.40;;
66399;Laerm;54877;51.504;3.894;2023-05-07T09:20:03;45.35;33.36;64.57;;
66399;Laerm;54877;51.504;3.894;2023-05-07T09:22:38;37.25;33.40;47.25;;
66399;Laerm;54877;51.504;3.894;2023-05-07T09:25:05;42.21;33.51;60.99;;
66399;Laerm;54877;51.504;3.894;2023-05-07T09:27:31;35.86;33.08;49.18;;
66399;Laerm;54877;51.504;3.894;2023-05-07T09:29:56;48.42;33.49;68.56;;
66399;Laerm;54877;51.504;3.894;2023-05-07T09:32:21;35.82;33.51;53.23;;
66399;Laerm;54877;51.504;3.894;2023-05-07T09:34:47;36.31;33.38;56.62;;
66399;Laerm;54877;51.504;3.894;2023-05-07T09:37:13;36.20;33.10;49.61;;
66399;Laerm;54877;51.504;3.894;2023-05-07T09:39:43;35.85;33.48;47.61;;
66399;Laerm;54877;51.504;3.894;2023-05-07T09:42:09;39.68;33.40;55.69;;
66399;Laerm;54877;51.504;3.894;2023-05-07T09:44:34;35.85;33.40;47.99;;
66399;Laerm;54877;51.504;3.894;2023-05-07T09:47:04;38.69;33.31;53.62;;
66399;Laerm;54877;51.504;3.894;2023-05-07T09:49:30;41.08;33.39;58.88;;
66399;Laerm;54877;51.504;3.894;2023-05-07T09:52:00;46.97;33.65;66.06;;
66399;Laerm;54877;51.504;3.894;2023-05-07T09:54:26;36.85;33.28;50.32;;
66399;Laerm;54877;51.504;3.894;2023-05-07T09:56:54;42.49;33.67;66.04;;
66399;Laerm;54877;51.504;3.894;2023-05-07T09:59:21;42.20;33.44;63.13;;
66399;Laerm;54877;51.504;3.894;2023-05-07T10:01:46;38.16;33.57;53.04;;
66399;Laerm;54877;51.504;3.894;2023-05-07T10:04:13;43.16;33.38;61.23;;
66399;Laerm;54877;51.504;3.894;2023-05-07T10:06:40;42.12;33.22;57.65;;
66399;Laerm;54877;51.504;3.894;2023-05-07T10:09:06;46.03;32.95;62.16;;
66399;Laerm;54877;51.504;3.894;2023-05-07T10:11:35;35.29;33.42;48.05;;
66399;Laerm;54877;51.504;3.894;2023-05-07T10:14:01;44.13;33.51;63.51;;
66399;Laerm;54877;51.504;3.894;2023-05-07T10:16:29;40.02;33.49;56.05;;
66399;Laerm;54877;51.504;3.894;2023-05-07T10:18:58;36.81;33.36;52.07;;
66399;Laerm;54877;51.504;3.894;2023-05-07T10:21:23;36.99;33.49;54.42;;
66399;Laerm;54877;51.504;3.894;2023-05-07T10:23:51;35.69;33.34;52.83;;
66399;Laerm;54877;51.504;3.894;2023-05-07T10:26:20;45.63;34.02;64.72;;
66399;Laerm;54877;51.504;3.894;2023-05-07T10:28:51;42.39;33.78;60.02;;
66399;Laerm;54877;51.504;3.894;2023-05-07T10:34:18;37.58;33.37;56.60;;
66399;Laerm;54877;51.504;3.894;2023-05-07T10:36:46;38.42;33.59;55.29;;
66399;Laerm;54877;51.504;3.894;2023-05-07T10:39:13;37.82;33.25;53.61;;
66399;Laerm;54877;51.504;3.894;2023-05-07T10:41:39;38.72;33.38;58.32;;
66399;Laerm;54877;51.504;3.894;2023-05-07T10:44:04;35.45;33.40;54.71;;
66399;Laerm;54877;51.504;3.894;2023-05-07T10:46:30;35.67;33.47;58.61;;
66399;Laerm;54877;51.504;3.894;2023-05-07T10:51:27;36.76;33.49;47.26;;
66399;Laerm;54877;51.504;3.894;2023-05-07T10:56:41;42.46;33.37;61.75;;
66399;Laerm;54877;51.504;3.894;2023-05-07T10:59:34;42.99;33.44;61.66;;
66399;Laerm;54877;51.504;3.894;2023-05-07T11:02:05;47.95;33.85;68.24;;
66399;Laerm;54877;51.504;3.894;2023-05-07T11:04:33;42.41;34.00;57.53;;
66399;Laerm;54877;51.504;3.894;2023-05-07T11:15:02;46.10;33.57;66.36;;
66399;Laerm;54877;51.504;3.894;2023-05-07T11:17:28;46.19;33.45;73.19;;
66399;Laerm;54877;51.504;3.894;2023-05-07T11:19:57;41.38;33.45;65.90;;
66399;Laerm;54877;51.504;3.894;2023-05-07T11:24:59;45.40;33.44;69.63;;
66399;Laerm;54877;51.504;3.894;2023-05-07T11:27:25;41.53;33.40;65.60;;
66399;Laerm;54877;51.504;3.894;2023-05-07T11:29:51;47.99;33.80;70.07;;
66399;Laerm;54877;51.504;3.894;2023-05-07T11:32:22;45.67;33.74;68.28;;
66399;Laerm;54877;51.504;3.894;2023-05-07T11:34:51;46.40;33.44;63.96;;
66399;Laerm;54877;51.504;3.894;2023-05-07T11:37:18;43.83;33.50;65.68;;
66399;Laerm;54877;51.504;3.894;2023-05-07T11:39:43;45.78;33.54;65.11;;
66399;Laerm;54877;51.504;3.894;2023-05-07T11:42:28;49.64;33.47;75.67;;
66399;Laerm;54877;51.504;3.894;2023-05-07T11:44:54;44.47;33.59;64.21;;
66399;Laerm;54877;51.504;3.894;2023-05-07T11:47:20;39.77;33.36;56.08;;
66399;Laerm;54877;51.504;3.894;2023-05-07T11:49:47;44.32;33.29;63.20;;
66399;Laerm;54877;51.504;3.894;2023-05-07T11:52:13;37.54;33.50;51.74;;
66399;Laerm;54877;51.504;3.894;2023-05-07T11:54:39;36.94;33.38;63.74;;
66399;Laerm;54877;51.504;3.894;2023-05-07T11:57:04;45.68;33.46;74.77;;
66399;Laerm;54877;51.504;3.894;2023-05-07T11:59:38;45.93;33.64;68.11;;
66399;Laerm;54877;51.504;3.894;2023-05-07T12:02:03;36.12;33.42;46.72;;
66399;Laerm;54877;51.504;3.894;2023-05-07T12:04:30;43.78;33.67;62.22;;
66399;Laerm;54877;51.504;3.894;2023-05-07T12:06:55;45.25;33.46;63.85;;
66399;Laerm;54877;51.504;3.894;2023-05-07T12:09:21;39.58;33.67;59.97;;
66399;Laerm;54877;51.504;3.894;2023-05-07T12:11:46;39.94;33.64;55.99;;
66399;Laerm;54877;51.504;3.894;2023-05-07T12:14:12;39.47;34.12;51.05;;
66399;Laerm;54877;51.504;3.894;2023-05-07T12:16:39;37.47;33.29;56.85;;
66399;Laerm;54877;51.504;3.894;2023-05-07T12:19:06;39.71;33.38;55.42;;
66399;Laerm;54877;51.504;3.894;2023-05-07T12:21:33;40.46;33.44;57.70;;
66399;Laerm;54877;51.504;3.894;2023-05-07T12:23:58;47.34;33.58;64.71;;
66399;Laerm;54877;51.504;3.894;2023-05-07T12:26:24;44.84;33.56;65.26;;
66399;Laerm;54877;51.504;3.894;2023-05-07T12:28:49;39.10;33.46;55.17;;
66399;Laerm;54877;51.504;3.894;2023-05-07T12:31:15;37.89;33.28;55.70;;
66399;Laerm;54877;51.504;3.894;2023-05-07T12:33:41;47.62;33.41;66.65;;
66399;Laerm;54877;51.504;3.894;2023-05-07T12:36:07;43.14;33.40;68.91;;
66399;Laerm;54877;51.504;3.894;2023-05-07T12:38:37;41.79;33.71;66.66;;
66399;Laerm;54877;51.504;3.894;2023-05-07T12:41:03;40.13;33.74;60.26;;
66399;Laerm;54877;51.504;3.894;2023-05-07T12:43:29;39.27;33.53;56.14;;
66399;Laerm;54877;51.504;3.894;2023-05-07T12:46:05;46.92;33.44;67.38;;
66399;Laerm;54877;51.504;3.894;2023-05-07T12:48:30;44.06;33.64;66.79;;
66399;Laerm;54877;51.504;3.894;2023-05-07T12:50:58;43.11;33.41;77.06;;
66399;Laerm;54877;51.504;3.894;2023-05-07T12:53:26;52.45;33.20;75.31;;
66399;Laerm;54877;51.504;3.894;2023-05-07T12:55:53;48.54;33.59;70.76;;
66399;Laerm;54877;51.504;3.894;2023-05-07T12:58:30;47.34;33.45;66.41;;
66399;Laerm;54877;51.504;3.894;2023-05-07T13:00:57;43.24;33.32;62.29;;
66399;Laerm;54877;51.504;3.894;2023-05-07T13:05:53;34.72;33.32;38.04;;
66399;Laerm;54877;51.504;3.894;2023-05-07T13:10:54;43.93;33.58;61.52;;
66399;Laerm;54877;51.504;3.894;2023-05-07T13:13:20;38.72;33.33;68.43;;
66399;Laerm;54877;51.504;3.894;2023-05-07T13:15:46;35.26;33.51;41.78;;
66399;Laerm;54877;51.504;3.894;2023-05-07T13:18:12;38.62;33.59;56.78;;
66399;Laerm;54877;51.504;3.894;2023-05-07T13:20:37;42.75;33.66;58.11;;
66399;Laerm;54877;51.504;3.894;2023-05-07T13:23:03;36.08;33.52;56.56;;
66399;Laerm;54877;51.504;3.894;2023-05-07T13:25:29;41.04;33.51;57.63;;
66399;Laerm;54877;51.504;3.894;2023-05-07T13:27:56;40.35;33.52;57.41;;
66399;Laerm;54877;51.504;3.894;2023-05-07T13:30:22;37.89;33.56;52.60;;
66399;Laerm;54877;51.504;3.894;2023-05-07T13:32:47;43.23;33.78;61.48;;
66399;Laerm;54877;51.504;3.894;2023-05-07T13:35:13;41.76;33.53;70.15;;
66399;Laerm;54877;51.504;3.894;2023-05-07T13:37:38;40.66;33.62;65.61;;
66399;Laerm;54877;51.504;3.894;2023-05-07T13:40:04;37.04;33.73;55.87;;
66399;Laerm;54877;51.504;3.894;2023-05-07T13:42:29;49.16;33.99;68.12;;
66399;Laerm;54877;51.504;3.894;2023-05-07T13:44:56;48.36;34.31;59.79;;
66399;Laerm;54877;51.504;3.894;2023-05-07T13:47:21;46.61;38.16;55.75;;
66399;Laerm;54877;51.504;3.894;2023-05-07T13:49:47;44.97;34.61;68.60;;
66399;Laerm;54877;51.504;3.894;2023-05-07T13:52:15;44.95;34.29;67.40;;
66399;Laerm;54877;51.504;3.894;2023-05-07T13:54:40;49.25;35.36;73.40;;
66399;Laerm;54877;51.504;3.894;2023-05-07T13:57:05;46.39;35.41;74.51;;
66399;Laerm;54877;51.504;3.894;2023-05-07T13:59:31;48.00;36.80;74.12;;
66399;Laerm;54877;51.504;3.894;2023-05-07T14:01:56;43.01;34.68;68.33;;